createdAt,value
2018-07-26T17:21:14.941Z,8.93
2018-07-26T17:23:43.820Z,7.30
2018-07-26T17:26:11.907Z,6.83
2018-07-26T17:28:40.005Z,6.80
2018-07-26T17:31:08.109Z,6.97
2018-07-26T17:33:36.208Z,7.00
2018-07-26T17:36:04.255Z,7.53
2018-07-26T17:38:32.381Z,7.03
2018-07-26T17:41:00.537Z,8.13
2018-07-26T17:43:28.601Z,6.83
2018-07-26T17:45:56.701Z,7.30
2018-07-26T17:48:24.919Z,7.43
2018-07-26T17:50:54.837Z,7.07
2018-07-26T17:53:22.929Z,7.00
2018-07-26T17:55:50.932Z,7.13
2018-07-26T17:58:19.016Z,7.20
2018-07-26T18:00:47.078Z,7.73
2018-07-26T18:03:15.229Z,7.00
2018-07-26T18:05:43.313Z,6.90
2018-07-26T18:08:11.972Z,7.10
2018-07-26T18:10:40.755Z,7.60
2018-07-26T18:13:08.829Z,7.60
2018-07-26T18:15:37.084Z,8.33
2018-07-26T18:18:05.199Z,11.87
2018-07-26T18:20:33.263Z,8.20
2018-07-26T18:23:01.329Z,8.13
2018-07-26T18:25:29.422Z,9.63
2018-07-26T18:27:57.547Z,8.00
2018-07-26T18:30:25.644Z,8.47
2018-07-26T18:32:54.282Z,9.57
2018-07-26T18:35:22.409Z,8.43
2018-07-26T18:37:50.522Z,9.50
2018-07-26T18:40:18.597Z,8.43
2018-07-26T18:42:47.460Z,8.07
2018-07-26T18:45:15.543Z,8.07
2018-07-26T18:47:43.613Z,9.10
2018-07-26T18:50:12.051Z,8.27
2018-07-26T18:52:39.967Z,8.67
2018-07-26T18:55:09.679Z,8.43
2018-07-26T18:57:38.007Z,8.20
2018-07-26T19:00:10.086Z,8.13
2018-07-26T19:02:38.171Z,8.47
2018-07-26T19:05:06.812Z,7.90
2018-07-26T19:07:35.452Z,8.07
2018-07-26T19:10:04.441Z,7.57
2018-07-26T19:12:32.519Z,8.13
2018-07-26T19:15:00.607Z,8.00
2018-07-26T19:17:28.752Z,8.17
2018-07-26T19:19:56.765Z,8.43
2018-07-26T19:22:25.458Z,8.10
2018-07-26T19:24:53.883Z,8.50
2018-07-26T19:27:22.629Z,8.30
2018-07-26T19:29:51.310Z,7.80
2018-07-26T19:32:23.828Z,8.27
2018-07-26T19:34:52.770Z,8.13
2018-07-26T19:37:20.913Z,7.93
2018-07-26T19:39:49.621Z,8.37
2018-07-26T19:42:18.024Z,8.70
2018-07-26T19:44:46.494Z,9.20
2018-07-26T19:47:14.621Z,8.70
2018-07-26T19:49:55.845Z,8.47
2018-07-26T19:52:24.056Z,8.13
2018-07-26T20:00:42.318Z,8.63
2018-07-26T20:03:12.281Z,10.60
2018-07-26T20:05:52.073Z,11.00
2018-07-26T20:08:20.182Z,9.77
2018-07-26T20:10:48.581Z,10.07
2018-07-26T20:13:17.148Z,9.30
2018-07-26T20:15:46.229Z,8.80
2018-07-26T20:18:14.716Z,8.57
2018-07-26T20:20:42.797Z,9.20
2018-07-26T20:23:11.692Z,9.40
2018-07-26T20:25:41.031Z,9.03
2018-07-26T20:28:10.716Z,8.67
2018-07-26T20:30:38.815Z,8.93
2018-07-26T20:33:07.470Z,9.13
2018-07-26T20:35:36.353Z,8.67
2018-07-26T20:38:04.845Z,9.27
2018-07-26T20:40:34.217Z,9.30
2018-07-26T20:43:02.273Z,9.53
2018-07-26T20:45:38.457Z,9.60
2018-07-26T20:48:06.873Z,9.67
2018-07-26T20:50:35.003Z,9.37
2018-07-26T20:53:03.056Z,9.67
2018-07-26T20:55:32.037Z,9.87
2018-07-26T20:58:00.157Z,9.10
2018-07-26T21:00:28.045Z,10.33
2018-07-26T21:02:56.920Z,9.87
2018-07-26T21:05:25.096Z,9.50
2018-07-26T21:07:53.124Z,10.07
2018-07-26T21:10:21.265Z,9.17
2018-07-26T21:12:50.040Z,9.30
2018-07-26T21:15:18.093Z,9.33
2018-07-26T21:17:46.177Z,9.63
2018-07-26T21:20:14.240Z,9.53
2018-07-26T21:22:42.098Z,9.60
2018-07-26T21:25:10.149Z,9.73
2018-07-26T21:27:38.218Z,9.67
2018-07-26T21:30:07.996Z,9.70
2018-07-26T21:32:36.141Z,9.70
2018-07-26T21:35:04.621Z,8.90
2018-07-26T21:37:32.471Z,9.40
2018-07-26T21:40:00.522Z,9.10
2018-07-26T21:42:28.580Z,9.57
2018-07-26T21:44:56.667Z,9.20
2018-07-26T21:47:24.772Z,9.67
2018-07-26T21:49:52.844Z,10.43
2018-07-26T21:52:20.889Z,8.90
2018-07-26T21:54:48.957Z,8.70
2018-07-26T21:57:17.023Z,9.03
2018-07-26T21:59:45.098Z,9.00
2018-07-26T22:02:13.944Z,9.10
2018-07-26T22:04:42.313Z,8.77
2018-07-26T22:07:10.366Z,8.77
2018-07-26T22:09:38.381Z,8.57
2018-07-26T22:12:06.437Z,8.53
2018-07-26T22:14:38.168Z,8.90
2018-07-26T22:17:08.021Z,9.13
2018-07-26T22:19:37.181Z,9.53
2018-07-26T22:22:05.217Z,8.70
2018-07-26T22:24:33.284Z,8.73
2018-07-26T22:27:01.429Z,9.00
2018-07-26T22:29:30.662Z,8.57
2018-07-26T22:31:58.730Z,8.90
2018-07-26T22:34:26.828Z,8.87
2018-07-26T22:36:54.899Z,9.10
2018-07-26T22:39:24.079Z,9.20
2018-07-26T22:41:52.141Z,9.63
2018-07-26T22:44:20.239Z,8.87
2018-07-26T22:46:49.201Z,9.17
2018-07-26T22:49:17.266Z,8.77
2018-07-26T22:51:46.072Z,9.00
2018-07-26T22:54:14.130Z,8.93
2018-07-26T22:56:42.225Z,9.00
2018-07-26T22:59:10.980Z,8.90
2018-07-26T23:01:39.144Z,9.10
2018-07-26T23:04:07.202Z,9.20
2018-07-26T23:06:35.265Z,9.07
2018-07-26T23:09:03.764Z,9.33
2018-07-26T23:11:31.888Z,9.30
2018-07-26T23:13:59.940Z,9.63
2018-07-26T23:16:28.023Z,9.43
2018-07-26T23:18:56.090Z,9.93
2018-07-26T23:21:24.260Z,9.63
2018-07-26T23:23:53.945Z,9.13
2018-07-26T23:26:22.064Z,9.33
2018-07-26T23:28:50.136Z,9.70
2018-07-26T23:31:18.241Z,9.63
2018-07-26T23:33:46.339Z,9.90
2018-07-26T23:36:15.712Z,9.17
2018-07-26T23:41:52.758Z,9.63
2018-07-26T23:44:22.039Z,8.97
2018-07-26T23:46:51.186Z,9.57
2018-07-26T23:49:19.315Z,9.90
2018-07-26T23:51:47.416Z,9.90
2018-07-26T23:54:15.509Z,9.87
2018-07-26T23:56:43.954Z,10.00
2018-07-26T23:59:12.089Z,10.07
